createdAt,value
2019-05-19T00:00:43.932Z,11.80
2019-05-19T00:01:43.944Z,11.61
2019-05-19T00:02:43.912Z,11.61
2019-05-19T00:03:43.900Z,11.65
2019-05-19T00:04:43.901Z,11.62
2019-05-19T00:05:43.879Z,11.65
2019-05-19T00:06:43.877Z,11.65
2019-05-19T00:07:43.863Z,11.68
2019-05-19T00:08:43.857Z,11.68
2019-05-19T00:09:43.845Z,11.65
2019-05-19T00:10:43.845Z,11.70
2019-05-19T00:11:43.816Z,11.67
2019-05-19T00:12:43.804Z,11.65
2019-05-19T00:13:43.794Z,11.70
2019-05-19T00:14:43.795Z,11.64
2019-05-19T00:15:43.817Z,11.67
2019-05-19T00:16:43.776Z,11.74
2019-05-19T00:17:43.755Z,11.65
2019-05-19T00:18:43.740Z,11.70
2019-05-19T00:19:43.742Z,11.68
2019-05-19T00:20:43.719Z,11.61
2019-05-19T00:21:43.709Z,11.59
2019-05-19T00:22:43.698Z,11.62
2019-05-19T00:23:43.686Z,11.54
2019-05-19T00:24:43.695Z,11.56
2019-05-19T00:25:43.668Z,11.57
2019-05-19T00:26:43.663Z,11.57
2019-05-19T00:27:43.649Z,11.47
2019-05-19T00:28:43.638Z,11.54
2019-05-19T00:29:43.683Z,11.52
2019-05-19T00:30:43.613Z,11.52
2019-05-19T00:31:43.615Z,11.57
2019-05-19T00:32:43.590Z,11.53
2019-05-19T00:33:43.580Z,11.44
2019-05-19T00:34:43.607Z,11.43
2019-05-19T00:35:43.565Z,11.50
2019-05-19T00:36:43.551Z,11.52
2019-05-19T00:37:43.537Z,11.47
2019-05-19T00:38:43.526Z,11.53
2019-05-19T00:39:43.522Z,11.52
2019-05-19T00:40:43.503Z,11.64
2019-05-19T00:41:43.511Z,11.54
2019-05-19T00:42:43.482Z,11.54
2019-05-19T00:43:43.470Z,11.47
2019-05-19T00:44:43.470Z,11.47
2019-05-19T00:45:43.450Z,11.49
2019-05-19T00:46:43.439Z,11.46
2019-05-19T00:47:43.428Z,11.41
2019-05-19T00:48:43.420Z,11.36
2019-05-19T00:49:43.415Z,11.36
2019-05-19T00:50:43.397Z,11.32
2019-05-19T00:51:43.386Z,11.35
2019-05-19T00:52:43.383Z,11.28
2019-05-19T00:53:43.371Z,11.34
2019-05-19T00:54:43.362Z,11.29
2019-05-19T00:55:43.342Z,11.20
2019-05-19T00:56:43.334Z,11.24
2019-05-19T00:57:43.324Z,11.21
2019-05-19T00:58:43.308Z,11.21
2019-05-19T00:59:43.316Z,11.20
2019-05-19T01:00:43.292Z,11.25
2019-05-19T01:01:43.293Z,11.20
2019-05-19T01:02:43.268Z,11.25
2019-05-19T01:03:43.255Z,11.29
2019-05-19T01:04:43.271Z,11.34
2019-05-19T01:05:43.239Z,11.21
2019-05-19T01:06:43.223Z,11.24
2019-05-19T01:07:43.213Z,11.27
2019-05-19T01:08:43.200Z,11.28
2019-05-19T01:09:43.222Z,11.32
2019-05-19T01:10:43.215Z,11.28
2019-05-19T01:11:43.167Z,11.27
2019-05-19T01:12:43.157Z,11.39
2019-05-19T01:13:43.146Z,11.34
2019-05-19T01:14:43.135Z,11.36
2019-05-19T01:15:43.136Z,11.36
2019-05-19T01:16:43.116Z,11.29
2019-05-19T01:17:43.104Z,11.36
2019-05-19T01:18:43.094Z,11.41
2019-05-19T01:19:55.335Z,11.39
2019-05-19T01:20:44.102Z,11.47
2019-05-19T01:21:43.075Z,11.38
2019-05-19T01:22:43.055Z,11.36
2019-05-19T01:23:43.042Z,11.47
2019-05-19T01:24:43.027Z,11.49
2019-05-19T01:25:43.025Z,11.49
2019-05-19T01:26:43.005Z,11.44
2019-05-19T01:27:42.995Z,11.43
2019-05-19T01:28:42.987Z,11.50
2019-05-19T01:29:42.979Z,11.47
2019-05-19T01:30:43.003Z,11.52
2019-05-19T01:31:42.951Z,11.50
2019-05-19T01:32:42.942Z,11.62
2019-05-19T01:33:42.942Z,11.62
2019-05-19T01:34:42.929Z,11.41
2019-05-19T01:35:42.922Z,11.53
2019-05-19T01:36:42.900Z,11.62
2019-05-19T01:37:42.894Z,11.53
2019-05-19T01:38:42.875Z,11.44
2019-05-19T01:39:42.864Z,11.47
2019-05-19T01:40:42.864Z,11.44
2019-05-19T01:41:42.845Z,11.46
2019-05-19T01:42:42.832Z,11.44
2019-05-19T01:43:42.822Z,11.43
2019-05-19T01:44:42.810Z,11.38
2019-05-19T01:45:42.816Z,11.36
2019-05-19T01:46:42.806Z,11.36
2019-05-19T01:47:42.780Z,11.41
2019-05-19T01:48:42.766Z,11.39
2019-05-19T01:49:42.756Z,11.32
2019-05-19T01:50:42.782Z,11.35
2019-05-19T01:51:42.739Z,11.32
2019-05-19T01:52:42.742Z,11.32
2019-05-19T01:53:42.715Z,11.29
2019-05-19T01:54:42.701Z,11.41
2019-05-19T01:55:42.699Z,11.27
2019-05-19T01:56:42.686Z,11.35
2019-05-19T01:57:42.675Z,11.27
2019-05-19T01:58:42.661Z,11.25
2019-05-19T01:59:42.654Z,11.32
2019-05-19T02:00:42.645Z,11.32
2019-05-19T02:01:42.633Z,11.32
2019-05-19T02:02:42.615Z,11.34
2019-05-19T02:03:42.605Z,11.34
2019-05-19T02:04:42.594Z,11.32
2019-05-19T02:05:42.590Z,11.35
2019-05-19T02:06:42.577Z,11.36
2019-05-19T02:07:42.568Z,11.31
2019-05-19T02:08:42.553Z,11.19
2019-05-19T02:09:42.635Z,11.19
2019-05-19T02:10:42.539Z,11.27
2019-05-19T02:11:42.526Z,11.17
2019-05-19T02:12:42.529Z,11.19
2019-05-19T02:13:42.495Z,11.19
2019-05-19T02:14:42.487Z,11.17
2019-05-19T02:15:42.515Z,11.24
2019-05-19T02:16:42.464Z,11.25
2019-05-19T02:17:42.454Z,11.28
2019-05-19T02:18:42.457Z,11.27
2019-05-19T02:19:42.433Z,11.32
2019-05-19T02:20:42.433Z,11.35
2019-05-19T02:21:42.473Z,11.28
2019-05-19T02:22:42.409Z,11.36
2019-05-19T02:23:42.387Z,11.32
2019-05-19T02:24:42.380Z,11.32
2019-05-19T02:25:42.377Z,11.28
2019-05-19T02:26:42.370Z,11.29
2019-05-19T02:27:42.363Z,11.34
2019-05-19T02:28:42.333Z,11.34
2019-05-19T02:29:42.328Z,11.31
2019-05-19T02:30:42.314Z,11.36
2019-05-19T02:31:42.312Z,11.35
2019-05-19T02:32:42.293Z,11.34
2019-05-19T02:33:42.281Z,11.35
2019-05-19T02:34:42.269Z,11.31
2019-05-19T02:35:42.259Z,11.25
2019-05-19T02:36:42.263Z,11.31
2019-05-19T02:37:42.238Z,11.38
2019-05-19T02:38:42.227Z,11.38
2019-05-19T02:39:42.214Z,11.27
2019-05-19T02:40:42.203Z,11.19
2019-05-19T02:41:42.203Z,11.25
2019-05-19T02:42:42.185Z,11.17
2019-05-19T02:43:42.172Z,11.19
2019-05-19T02:44:42.174Z,11.20
2019-05-19T02:45:42.150Z,11.24
2019-05-19T02:46:42.148Z,11.11
2019-05-19T02:47:42.129Z,11.10
2019-05-19T02:48:42.119Z,11.01
2019-05-19T02:49:42.104Z,11.03
2019-05-19T02:50:51.671Z,10.98
2019-05-19T02:51:43.097Z,11.02
2019-05-19T02:52:42.079Z,11.09
2019-05-19T02:53:42.081Z,11.02
2019-05-19T02:54:42.065Z,11.09
2019-05-19T02:55:42.042Z,10.96
2019-05-19T02:56:42.044Z,10.95
2019-05-19T02:57:42.021Z,11.02
2019-05-19T02:58:42.010Z,11.03
2019-05-19T02:59:41.998Z,11.03
2019-05-19T03:00:42.013Z,11.07
2019-05-19T03:01:41.990Z,11.07
2019-05-19T03:02:41.970Z,11.06
2019-05-19T03:03:41.954Z,11.01
2019-05-19T03:04:41.954Z,11.07
2019-05-19T03:05:41.932Z,11.06
2019-05-19T03:06:41.931Z,11.03
2019-05-19T03:07:41.923Z,11.01
2019-05-19T03:08:41.908Z,11.06
2019-05-19T03:09:41.891Z,10.99
2019-05-19T03:10:41.883Z,10.96
2019-05-19T03:11:41.877Z,10.92
2019-05-19T03:12:41.854Z,10.88
2019-05-19T03:13:41.845Z,10.91
2019-05-19T03:14:41.834Z,10.86
2019-05-19T03:15:41.822Z,10.86
2019-05-19T03:16:41.819Z,10.84
2019-05-19T03:17:41.810Z,10.94
2019-05-19T03:18:41.787Z,10.89
2019-05-19T03:19:41.782Z,10.96
2019-05-19T03:20:41.766Z,10.94
2019-05-19T03:21:41.763Z,10.96
2019-05-19T03:22:41.748Z,10.98
2019-05-19T03:23:41.734Z,10.92
2019-05-19T03:24:41.723Z,10.99
2019-05-19T03:25:44.215Z,11.06
2019-05-19T03:26:41.893Z,11.03
2019-05-19T03:27:41.691Z,11.06
2019-05-19T03:28:41.687Z,11.02
2019-05-19T03:29:41.669Z,10.92
2019-05-19T03:30:41.685Z,10.66
2019-05-19T03:31:41.648Z,10.66
2019-05-19T03:32:41.660Z,10.60
2019-05-19T03:33:41.654Z,10.63
2019-05-19T03:34:41.627Z,10.53
2019-05-19T03:35:41.604Z,10.56
2019-05-19T03:36:41.601Z,10.42
2019-05-19T03:37:41.592Z,10.60
2019-05-19T03:38:41.575Z,10.65
2019-05-19T03:39:41.559Z,10.74
2019-05-19T03:40:41.549Z,10.80
2019-05-19T03:41:41.539Z,10.84
2019-05-19T03:42:41.550Z,11.11
2019-05-19T03:43:41.518Z,11.35
2019-05-19T03:44:41.506Z,11.49
2019-05-19T03:45:41.495Z,11.39
2019-05-19T03:46:41.484Z,11.49
2019-05-19T03:47:41.482Z,11.39
2019-05-19T03:48:41.464Z,11.43
2019-05-19T03:49:41.452Z,11.56
2019-05-19T03:50:41.440Z,11.96
2019-05-19T03:51:41.429Z,12.30
2019-05-19T03:52:41.432Z,12.78
2019-05-19T03:53:41.411Z,13.11
2019-05-19T03:54:41.408Z,12.96
2019-05-19T03:55:41.402Z,12.89
2019-05-19T03:56:41.377Z,13.07
2019-05-19T03:57:41.374Z,13.43
2019-05-19T03:58:41.357Z,13.88
2019-05-19T03:59:41.341Z,14.24
2019-05-19T04:00:41.331Z,14.56
2019-05-19T04:01:41.319Z,14.95
2019-05-19T04:02:41.318Z,15.08
2019-05-19T04:03:41.356Z,15.24
2019-05-19T04:04:41.288Z,15.43
2019-05-19T04:05:41.277Z,15.59
2019-05-19T04:06:41.332Z,15.70
2019-05-19T04:07:41.281Z,15.84
2019-05-19T04:08:41.243Z,15.94
2019-05-19T04:09:41.230Z,15.94
2019-05-19T04:10:41.221Z,16.04
2019-05-19T04:11:41.210Z,16.22
2019-05-19T04:12:41.208Z,16.45
2019-05-19T04:13:41.191Z,16.52
2019-05-19T04:14:41.178Z,16.71
2019-05-19T04:15:41.167Z,16.80
2019-05-19T04:16:41.157Z,17.03
2019-05-19T04:17:41.158Z,17.28
2019-05-19T04:18:41.134Z,17.43
2019-05-19T04:19:41.121Z,17.48
2019-05-19T04:20:41.115Z,17.59
2019-05-19T04:21:48.796Z,17.32
2019-05-19T04:22:42.101Z,17.51
2019-05-19T04:23:41.081Z,17.66
2019-05-19T04:24:41.078Z,17.50
2019-05-19T04:25:41.060Z,17.59
2019-05-19T04:26:41.056Z,17.57
2019-05-19T04:27:41.046Z,17.85
2019-05-19T04:28:41.026Z,17.89
2019-05-19T04:29:41.017Z,18.17
2019-05-19T04:30:41.004Z,18.42
2019-05-19T04:31:40.994Z,18.52
2019-05-19T04:32:41.006Z,18.80
2019-05-19T04:33:40.973Z,19.15
2019-05-19T04:34:40.961Z,19.57
2019-05-19T04:35:40.956Z,19.83
2019-05-19T04:36:40.940Z,19.79
2019-05-19T04:37:40.933Z,19.79
2019-05-19T04:38:40.935Z,19.94
2019-05-19T04:39:40.911Z,19.91
2019-05-19T04:40:40.897Z,19.94
2019-05-19T04:41:40.888Z,19.43
2019-05-19T04:42:40.878Z,19.21
2019-05-19T04:43:40.891Z,19.20
2019-05-19T04:44:40.855Z,19.35
2019-05-19T04:45:40.848Z,19.46
2019-05-19T04:46:40.834Z,19.54
2019-05-19T04:47:40.826Z,19.54
2019-05-19T04:48:40.819Z,19.88
2019-05-19T04:49:40.803Z,20.41
2019-05-19T04:50:40.792Z,20.79
2019-05-19T04:51:40.797Z,20.95
2019-05-19T04:52:40.771Z,21.32
2019-05-19T04:53:40.767Z,21.14
2019-05-19T04:54:40.747Z,21.02
2019-05-19T04:55:40.742Z,20.99
2019-05-19T04:56:40.726Z,21.54
2019-05-19T04:57:40.717Z,22.10
2019-05-19T04:58:40.715Z,22.39
2019-05-19T04:59:40.695Z,22.44
2019-05-19T05:00:40.691Z,22.64
2019-05-19T05:01:40.682Z,22.87
2019-05-19T05:02:40.672Z,22.99
2019-05-19T05:03:40.664Z,23.53
2019-05-19T05:04:40.655Z,23.71
2019-05-19T05:05:40.635Z,23.95
2019-05-19T05:06:40.623Z,23.71
2019-05-19T05:07:40.620Z,22.99
2019-05-19T05:08:40.614Z,22.41
2019-05-19T05:09:40.591Z,21.95
2019-05-19T05:10:40.580Z,21.90
2019-05-19T05:11:40.569Z,22.06
2019-05-19T05:12:40.559Z,22.44
2019-05-19T05:13:40.561Z,22.09
2019-05-19T05:14:40.538Z,21.59
2019-05-19T05:15:40.527Z,21.48
2019-05-19T05:16:40.552Z,21.23
2019-05-19T05:17:40.518Z,20.95
2019-05-19T05:18:40.504Z,20.61
2019-05-19T05:19:40.528Z,20.41
2019-05-19T05:20:40.476Z,19.83
2019-05-19T05:21:40.465Z,19.32
2019-05-19T05:22:40.458Z,19.10
2019-05-19T05:23:40.453Z,18.83
2019-05-19T05:24:40.434Z,18.37
2019-05-19T05:25:40.423Z,18.29
2019-05-19T05:26:40.427Z,18.29
2019-05-19T05:27:40.401Z,18.33
2019-05-19T05:28:40.399Z,18.21
2019-05-19T05:29:40.380Z,18.31
2019-05-19T05:30:40.373Z,18.55
2019-05-19T05:31:40.358Z,18.64
2019-05-19T05:32:40.350Z,19.15
2019-05-19T05:33:40.346Z,19.39
2019-05-19T05:34:40.327Z,19.24
2019-05-19T05:35:40.316Z,19.21
2019-05-19T05:36:40.305Z,19.29
2019-05-19T05:37:40.296Z,19.43
2019-05-19T05:38:40.297Z,19.54
2019-05-19T05:39:40.272Z,19.58
2019-05-19T05:40:40.262Z,19.73
2019-05-19T05:41:40.254Z,19.88
2019-05-19T05:42:40.257Z,20.56
2019-05-19T05:43:40.241Z,20.59
2019-05-19T05:44:40.222Z,20.13
2019-05-19T05:45:40.211Z,19.80
2019-05-19T05:46:40.202Z,19.57
2019-05-19T05:47:40.187Z,19.53
2019-05-19T05:48:40.214Z,19.46
2019-05-19T05:49:40.168Z,19.57
2019-05-19T05:50:40.157Z,19.63
2019-05-19T05:51:40.147Z,19.94
2019-05-19T05:52:40.136Z,20.18
2019-05-19T05:53:40.124Z,20.30
2019-05-19T05:54:40.121Z,20.34
2019-05-19T05:55:40.103Z,20.13
2019-05-19T05:56:40.091Z,19.86
2019-05-19T05:57:40.091Z,19.60
2019-05-19T05:58:40.070Z,19.46
2019-05-19T05:59:40.069Z,19.25
2019-05-19T06:00:40.052Z,19.20
2019-05-19T06:01:40.044Z,19.32
2019-05-19T06:02:40.029Z,19.38
2019-05-19T06:03:40.018Z,19.54
2019-05-19T06:04:40.015Z,19.79
2019-05-19T06:05:40.000Z,19.98
2019-05-19T06:06:39.987Z,20.06
2019-05-19T06:07:39.976Z,20.34
2019-05-19T06:08:39.969Z,20.74
2019-05-19T06:09:39.967Z,21.23
2019-05-19T06:10:39.945Z,21.50
2019-05-19T06:11:39.936Z,22.02
2019-05-19T06:12:39.923Z,22.22
2019-05-19T06:13:39.914Z,23.19
2019-05-19T06:14:39.912Z,23.90
2019-05-19T06:15:39.891Z,24.73
2019-05-19T06:16:39.881Z,24.47
2019-05-19T06:17:39.872Z,25.06
2019-05-19T06:18:39.863Z,25.32
2019-05-19T06:19:39.869Z,25.19
2019-05-19T06:20:39.841Z,25.02
2019-05-19T06:21:39.831Z,25.67
2019-05-19T06:22:55.121Z,25.28
2019-05-19T06:23:40.811Z,25.17
2019-05-19T06:24:39.815Z,25.24
2019-05-19T06:25:39.793Z,25.37
2019-05-19T06:26:39.785Z,25.69
2019-05-19T06:27:39.773Z,25.71
2019-05-19T06:28:39.762Z,24.68
2019-05-19T06:29:39.772Z,25.16
2019-05-19T06:30:39.742Z,25.59
2019-05-19T06:31:39.735Z,26.01
2019-05-19T06:32:39.722Z,26.47
2019-05-19T06:33:39.712Z,26.95
2019-05-19T06:34:39.716Z,27.09
2019-05-19T06:35:39.694Z,26.94
2019-05-19T06:36:39.683Z,26.15
2019-05-19T06:37:39.673Z,26.21
2019-05-19T06:38:39.678Z,26.69
2019-05-19T06:39:39.661Z,26.81
2019-05-19T06:40:39.644Z,26.64
2019-05-19T06:41:39.634Z,26.58
2019-05-19T06:42:39.623Z,26.72
2019-05-19T06:43:39.636Z,26.01
2019-05-19T06:44:39.615Z,25.34
2019-05-19T06:45:39.596Z,25.67
2019-05-19T06:46:39.587Z,25.87
2019-05-19T06:47:39.576Z,26.20
2019-05-19T06:48:39.569Z,26.79
2019-05-19T06:49:39.563Z,27.24
2019-05-19T06:50:40.722Z,27.70
2019-05-19T06:51:39.533Z,27.36
2019-05-19T06:52:39.523Z,27.36
2019-05-19T06:53:39.512Z,27.54
2019-05-19T06:54:39.511Z,27.74
2019-05-19T06:55:39.491Z,27.39
2019-05-19T06:56:39.481Z,27.28
2019-05-19T06:57:39.474Z,26.86
2019-05-19T06:58:39.460Z,26.72
2019-05-19T06:59:39.461Z,26.39
2019-05-19T07:00:39.444Z,26.12
2019-05-19T07:01:39.433Z,25.91
2019-05-19T07:02:39.421Z,25.57
2019-05-19T07:03:39.410Z,25.32
2019-05-19T07:04:39.450Z,24.85
2019-05-19T07:05:39.393Z,25.13
2019-05-19T07:06:39.397Z,25.57
2019-05-19T07:07:39.370Z,25.99
2019-05-19T07:08:39.359Z,25.87
2019-05-19T07:09:39.351Z,26.09
2019-05-19T07:10:39.347Z,25.89
2019-05-19T07:11:39.328Z,25.97
2019-05-19T07:12:39.319Z,26.37
2019-05-19T07:13:39.307Z,26.11
2019-05-19T07:14:39.296Z,25.84
2019-05-19T07:15:39.295Z,25.82
2019-05-19T07:16:39.277Z,25.72
2019-05-19T07:17:39.265Z,25.61
2019-05-19T07:18:39.270Z,25.12
2019-05-19T07:19:39.246Z,25.19
2019-05-19T07:20:39.250Z,25.01
2019-05-19T07:21:39.224Z,24.83
2019-05-19T07:22:39.216Z,24.80
2019-05-19T07:23:39.205Z,24.88
2019-05-19T07:24:39.195Z,24.76
2019-05-19T07:25:39.191Z,25.06
2019-05-19T07:26:39.172Z,25.24
2019-05-19T07:27:39.161Z,25.01
2019-05-19T07:28:39.152Z,25.17
2019-05-19T07:29:39.142Z,25.34
2019-05-19T07:30:39.143Z,25.61
2019-05-19T07:31:39.121Z,25.56
2019-05-19T07:32:39.112Z,25.43
2019-05-19T07:33:39.101Z,25.34
2019-05-19T07:34:39.090Z,25.34
2019-05-19T07:35:39.087Z,25.05
2019-05-19T07:36:39.069Z,24.97
2019-05-19T07:37:39.060Z,24.77
2019-05-19T07:38:39.046Z,24.85
2019-05-19T07:39:39.050Z,24.97
2019-05-19T07:40:39.033Z,24.79
2019-05-19T07:41:39.013Z,24.54
2019-05-19T07:42:39.045Z,24.59
2019-05-19T07:43:38.997Z,24.90
2019-05-19T07:44:38.984Z,25.01
2019-05-19T07:45:38.979Z,25.24
2019-05-19T07:46:38.964Z,25.46
2019-05-19T07:47:38.953Z,25.30
2019-05-19T07:48:38.942Z,25.20
2019-05-19T07:49:38.928Z,24.75
2019-05-19T07:50:38.926Z,24.42
2019-05-19T07:51:38.913Z,24.69
2019-05-19T07:52:38.901Z,25.05
2019-05-19T07:53:42.976Z,25.17
2019-05-19T07:54:38.874Z,25.20
2019-05-19T07:55:38.876Z,25.13
2019-05-19T07:56:38.857Z,24.91
2019-05-19T07:57:38.841Z,24.88
2019-05-19T07:58:38.831Z,24.83
2019-05-19T07:59:38.819Z,24.91
2019-05-19T08:00:38.816Z,24.71
2019-05-19T08:01:38.798Z,24.76
2019-05-19T08:02:38.866Z,24.79
2019-05-19T08:03:38.778Z,24.91
2019-05-19T08:04:38.765Z,24.69
2019-05-19T08:05:38.771Z,24.97
2019-05-19T08:06:38.747Z,25.06
2019-05-19T08:07:38.763Z,25.37
2019-05-19T08:08:38.722Z,25.53
2019-05-19T08:09:38.714Z,25.74
2019-05-19T08:10:38.712Z,26.02
2019-05-19T08:11:38.692Z,26.24
2019-05-19T08:12:38.685Z,26.25
2019-05-19T08:13:38.672Z,26.22
2019-05-19T08:14:38.661Z,26.11
2019-05-19T08:15:38.657Z,25.56
2019-05-19T08:16:38.638Z,25.44
2019-05-19T08:17:38.632Z,25.56
2019-05-19T08:18:38.621Z,25.31
2019-05-19T08:19:38.607Z,25.39
2019-05-19T08:20:38.897Z,25.57
2019-05-19T08:21:38.583Z,25.52
2019-05-19T08:22:38.587Z,25.34
2019-05-19T08:23:38.563Z,25.44
2019-05-19T08:24:38.559Z,25.35
2019-05-19T08:25:38.541Z,25.32
2019-05-19T08:26:38.562Z,25.47
2019-05-19T08:27:38.550Z,25.57
2019-05-19T08:28:38.541Z,25.31
2019-05-19T08:29:38.536Z,25.19
2019-05-19T08:30:38.491Z,25.02
2019-05-19T08:31:38.485Z,24.90
2019-05-19T08:32:38.467Z,24.91
2019-05-19T08:33:38.467Z,25.01
2019-05-19T08:34:38.445Z,25.15
2019-05-19T08:35:38.435Z,25.42
2019-05-19T08:36:38.433Z,25.44
2019-05-19T08:37:38.415Z,25.30
2019-05-19T08:38:38.407Z,25.00
2019-05-19T08:39:38.396Z,24.80
2019-05-19T08:40:38.383Z,24.52
2019-05-19T08:41:38.379Z,24.42
2019-05-19T08:42:38.360Z,24.59
2019-05-19T08:43:38.349Z,24.85
2019-05-19T08:44:38.345Z,24.97
2019-05-19T08:45:38.330Z,24.91
2019-05-19T08:46:38.328Z,24.69
2019-05-19T08:47:38.314Z,24.75
2019-05-19T08:48:38.298Z,25.13
2019-05-19T08:49:38.289Z,25.34
2019-05-19T08:50:38.276Z,25.42
2019-05-19T08:51:38.276Z,25.59
2019-05-19T08:52:38.259Z,25.61
2019-05-19T08:53:38.249Z,25.34
2019-05-19T08:54:38.236Z,25.43
2019-05-19T08:55:38.225Z,25.65
2019-05-19T08:56:38.222Z,25.20
2019-05-19T08:57:38.203Z,24.94
2019-05-19T08:58:38.195Z,24.76
2019-05-19T08:59:38.187Z,24.69
2019-05-19T09:00:38.636Z,24.64
2019-05-19T09:01:38.172Z,24.71
2019-05-19T09:02:38.152Z,24.71
2019-05-19T09:03:38.143Z,24.57
2019-05-19T09:04:38.136Z,24.77
2019-05-19T09:05:38.124Z,24.92
2019-05-19T09:06:38.117Z,24.82
2019-05-19T09:07:38.099Z,24.69
2019-05-19T09:08:38.092Z,24.68
2019-05-19T09:09:38.081Z,24.54
2019-05-19T09:10:38.072Z,24.39
2019-05-19T09:11:38.068Z,24.45
2019-05-19T09:12:38.046Z,24.77
2019-05-19T09:13:38.035Z,25.01
2019-05-19T09:14:38.026Z,25.12
2019-05-19T09:15:38.013Z,25.34
2019-05-19T09:16:38.014Z,25.30
2019-05-19T09:17:37.997Z,25.15
2019-05-19T09:18:37.987Z,25.24
2019-05-19T09:19:37.972Z,25.22
2019-05-19T09:20:37.963Z,25.20
2019-05-19T09:21:37.962Z,25.44
2019-05-19T09:22:37.940Z,25.34
2019-05-19T09:23:37.930Z,25.44
2019-05-19T09:24:37.922Z,25.38
2019-05-19T09:25:37.910Z,25.25
2019-05-19T09:26:37.910Z,25.44
2019-05-19T09:27:37.949Z,25.56
2019-05-19T09:28:37.880Z,25.43
2019-05-19T09:29:37.869Z,25.44
2019-05-19T09:30:37.857Z,25.50
2019-05-19T09:31:41.101Z,25.49
2019-05-19T09:32:37.848Z,25.64
2019-05-19T09:33:37.825Z,25.52
2019-05-19T09:34:37.817Z,25.62
2019-05-19T09:35:37.806Z,25.61
2019-05-19T09:36:37.794Z,25.67
2019-05-19T09:37:37.800Z,25.69
2019-05-19T09:38:37.773Z,25.90
2019-05-19T09:39:37.762Z,25.91
2019-05-19T09:40:37.755Z,25.72
2019-05-19T09:41:37.743Z,25.82
2019-05-19T09:42:37.750Z,25.84
2019-05-19T09:43:37.721Z,25.99
2019-05-19T09:44:37.728Z,25.79
2019-05-19T09:45:37.699Z,25.83
2019-05-19T09:46:37.691Z,25.94
2019-05-19T09:47:37.921Z,25.97
2019-05-19T09:48:37.668Z,25.79
2019-05-19T09:49:37.657Z,25.74
2019-05-19T09:50:37.648Z,25.84
2019-05-19T09:51:37.638Z,25.67
2019-05-19T09:52:37.636Z,25.64
2019-05-19T09:53:37.613Z,25.53
2019-05-19T09:54:45.214Z,25.47
2019-05-19T09:55:38.593Z,25.34
2019-05-19T09:56:37.587Z,25.46
2019-05-19T09:57:37.727Z,25.61
2019-05-19T09:58:37.560Z,25.90
2019-05-19T09:59:37.549Z,25.77
2019-05-19T10:00:37.539Z,25.69
2019-05-19T10:01:37.528Z,25.72
2019-05-19T10:02:37.527Z,25.77
2019-05-19T10:03:37.509Z,25.87
2019-05-19T10:04:37.499Z,26.01
2019-05-19T10:05:37.505Z,25.94
2019-05-19T10:06:37.479Z,25.72
2019-05-19T10:07:37.478Z,25.54
2019-05-19T10:08:37.453Z,25.44
2019-05-19T10:09:37.448Z,25.22
2019-05-19T10:10:37.433Z,25.07
2019-05-19T10:11:37.424Z,25.06
2019-05-19T10:12:37.421Z,25.12
2019-05-19T10:13:37.941Z,25.06
2019-05-19T10:14:37.394Z,24.92
2019-05-19T10:15:37.381Z,24.98
2019-05-19T10:16:37.451Z,25.02
2019-05-19T10:17:37.371Z,25.12
2019-05-19T10:18:37.353Z,25.32
2019-05-19T10:19:37.340Z,25.30
2019-05-19T10:20:37.328Z,25.32
2019-05-19T10:21:37.320Z,25.44
2019-05-19T10:22:37.315Z,25.59
2019-05-19T10:23:37.297Z,25.54
2019-05-19T10:24:37.286Z,25.74
2019-05-19T10:25:37.277Z,25.68
2019-05-19T10:26:37.266Z,25.43
2019-05-19T10:27:37.265Z,25.17
2019-05-19T10:28:37.245Z,25.24
2019-05-19T10:29:37.234Z,25.37
2019-05-19T10:30:37.229Z,25.02
2019-05-19T10:31:37.215Z,25.07
2019-05-19T10:32:37.214Z,25.31
2019-05-19T10:33:37.196Z,25.42
2019-05-19T10:34:37.184Z,25.30
2019-05-19T10:35:37.222Z,25.34
2019-05-19T10:36:37.161Z,25.59
2019-05-19T10:37:37.230Z,25.82
2019-05-19T10:38:37.142Z,25.94
2019-05-19T10:39:37.129Z,25.79
2019-05-19T10:40:37.120Z,25.64
2019-05-19T10:41:37.122Z,25.52
2019-05-19T10:42:37.131Z,25.54
2019-05-19T10:43:37.090Z,25.65
2019-05-19T10:44:37.077Z,25.72
2019-05-19T10:45:37.066Z,25.68
2019-05-19T10:46:37.056Z,25.61
2019-05-19T10:47:37.044Z,25.68
2019-05-19T10:48:37.042Z,25.79
2019-05-19T10:49:37.028Z,25.93
2019-05-19T10:50:37.013Z,25.99
2019-05-19T10:51:37.004Z,26.02
2019-05-19T10:52:36.994Z,26.22
2019-05-19T10:53:36.998Z,26.02
2019-05-19T10:54:36.972Z,25.97
2019-05-19T10:55:37.220Z,26.18
2019-05-19T10:56:36.950Z,26.24
2019-05-19T10:57:36.944Z,26.28
2019-05-19T10:58:36.937Z,26.25
2019-05-19T10:59:36.921Z,26.36
2019-05-19T11:00:36.908Z,26.50
2019-05-19T11:01:36.900Z,26.46
2019-05-19T11:02:36.888Z,26.59
2019-05-19T11:03:36.887Z,26.50
2019-05-19T11:04:36.867Z,26.50
2019-05-19T11:05:36.855Z,26.58
2019-05-19T11:06:36.848Z,26.83
2019-05-19T11:07:36.840Z,26.81
2019-05-19T11:08:36.835Z,26.67
2019-05-19T11:09:36.819Z,26.69
2019-05-19T11:10:36.801Z,26.74
2019-05-19T11:11:36.789Z,26.68
2019-05-19T11:12:36.783Z,26.69
2019-05-19T11:13:36.776Z,26.57
2019-05-19T11:14:36.768Z,26.59
2019-05-19T11:15:36.746Z,26.68
2019-05-19T11:16:36.737Z,26.84
2019-05-19T11:17:36.728Z,26.95
2019-05-19T11:18:36.727Z,26.99
2019-05-19T11:19:36.708Z,27.26
2019-05-19T11:20:36.693Z,27.16
2019-05-19T11:21:36.682Z,26.95
2019-05-19T11:22:36.672Z,26.87
2019-05-19T11:23:36.671Z,26.73
2019-05-19T11:24:36.657Z,26.59
2019-05-19T11:25:50.587Z,26.64
2019-05-19T11:26:37.628Z,26.52
2019-05-19T11:27:36.618Z,26.44
2019-05-19T11:28:36.617Z,26.67
2019-05-19T11:29:36.604Z,26.87
2019-05-19T11:30:36.587Z,26.96
2019-05-19T11:31:36.575Z,27.01
2019-05-19T11:32:36.565Z,26.95
2019-05-19T11:33:36.563Z,27.06
2019-05-19T11:34:36.545Z,27.19
2019-05-19T11:35:36.534Z,26.91
2019-05-19T11:36:36.524Z,26.79
2019-05-19T11:37:36.514Z,26.67
2019-05-19T11:38:36.507Z,26.77
2019-05-19T11:39:36.492Z,26.95
2019-05-19T11:40:36.479Z,26.94
2019-05-19T11:41:36.467Z,26.96
2019-05-19T11:42:36.459Z,26.94
2019-05-19T11:43:36.456Z,26.99
2019-05-19T11:44:36.435Z,27.17
2019-05-19T11:45:36.425Z,27.26
2019-05-19T11:46:36.414Z,27.31
2019-05-19T11:47:36.409Z,27.02
2019-05-19T11:48:36.400Z,27.19
2019-05-19T11:49:36.382Z,27.35
2019-05-19T11:50:36.371Z,27.59
2019-05-19T11:51:36.362Z,27.51
2019-05-19T11:52:36.350Z,27.13
2019-05-19T11:53:36.350Z,26.92
2019-05-19T11:54:36.329Z,26.79
2019-05-19T11:55:36.317Z,26.72
2019-05-19T11:56:36.308Z,26.58
2019-05-19T11:57:36.300Z,26.65
2019-05-19T11:58:36.322Z,26.49
2019-05-19T11:59:36.275Z,26.39
2019-05-19T12:00:36.276Z,26.25
2019-05-19T12:01:36.256Z,26.39
2019-05-19T12:02:36.252Z,26.52
2019-05-19T12:03:36.234Z,26.49
2019-05-19T12:04:36.351Z,26.57
2019-05-19T12:05:36.213Z,26.79
2019-05-19T12:06:39.816Z,26.73
2019-05-19T12:07:36.193Z,26.65
2019-05-19T12:08:36.179Z,26.44
2019-05-19T12:09:36.178Z,26.27
2019-05-19T12:10:36.159Z,26.36
2019-05-19T12:11:36.149Z,26.69
2019-05-19T12:12:36.154Z,26.62
2019-05-19T12:13:36.127Z,26.55
2019-05-19T12:14:36.126Z,26.62
2019-05-19T12:15:36.103Z,26.73
2019-05-19T12:16:36.095Z,26.98
2019-05-19T12:17:36.087Z,27.04
2019-05-19T12:18:36.077Z,27.01
2019-05-19T12:19:36.070Z,26.69
2019-05-19T12:20:36.058Z,26.55
2019-05-19T12:21:36.042Z,25.98
2019-05-19T12:22:36.029Z,25.52
2019-05-19T12:23:36.031Z,25.47
2019-05-19T12:24:36.017Z,25.47
2019-05-19T12:25:35.997Z,25.74
2019-05-19T12:26:35.988Z,25.84
2019-05-19T12:27:35.976Z,26.04
2019-05-19T12:28:35.972Z,26.21
2019-05-19T12:29:35.963Z,26.28
2019-05-19T12:30:35.946Z,26.52
2019-05-19T12:31:35.935Z,26.79
2019-05-19T12:32:35.937Z,26.72
2019-05-19T12:33:50.788Z,26.74
2019-05-19T12:34:36.911Z,26.86
2019-05-19T12:35:35.889Z,26.61
2019-05-19T12:36:35.880Z,26.54
2019-05-19T12:37:35.871Z,26.28
2019-05-19T12:38:35.862Z,26.12
2019-05-19T12:39:35.857Z,25.79
2019-05-19T12:40:35.836Z,25.84
2019-05-19T12:41:35.828Z,25.97
2019-05-19T12:42:35.817Z,25.99
2019-05-19T12:43:35.805Z,25.93
2019-05-19T12:44:35.801Z,26.09
2019-05-19T12:45:35.784Z,25.98
2019-05-19T12:46:35.772Z,26.24
2019-05-19T12:47:35.764Z,26.25
2019-05-19T12:48:35.750Z,26.04
2019-05-19T12:49:35.749Z,25.99
2019-05-19T12:50:35.736Z,25.97
2019-05-19T12:51:35.718Z,26.04
2019-05-19T12:52:35.709Z,25.69